createdAt,value
2022-12-04T00:01:36.363Z,19.67
2022-12-04T00:04:07.457Z,16.93
2022-12-04T00:06:35.706Z,17.33
2022-12-04T00:09:05.465Z,17.33
2022-12-04T00:11:35.012Z,17.10
2022-12-04T00:14:07.208Z,19.20
2022-12-04T00:16:35.882Z,19.40
2022-12-04T00:19:04.055Z,19.63
2022-12-04T00:21:37.884Z,17.47
2022-12-04T00:24:06.907Z,18.40
2022-12-04T00:26:35.321Z,17.73
2022-12-04T00:29:11.252Z,18.63
2022-12-04T00:31:39.401Z,19.13
2022-12-04T00:34:10.488Z,18.50
2022-12-04T00:36:45.553Z,16.90
2022-12-04T00:39:14.795Z,17.33
2022-12-04T00:41:44.383Z,17.47
2022-12-04T00:44:15.981Z,16.80
2022-12-04T00:46:44.739Z,17.27
2022-12-04T00:49:14.872Z,16.80
2022-12-04T00:51:44.661Z,16.70
2022-12-04T00:54:14.938Z,16.67
2022-12-04T00:56:46.292Z,15.33
2022-12-04T00:59:14.396Z,16.47
2022-12-04T01:01:42.458Z,16.73
2022-12-04T01:04:11.160Z,17.73
2022-12-04T01:06:41.470Z,16.07
2022-12-04T01:09:12.000Z,16.27
2022-12-04T01:11:40.805Z,16.70
2022-12-04T01:14:16.469Z,16.97
2022-12-04T01:16:45.977Z,16.80
2022-12-04T01:19:14.392Z,16.70
2022-12-04T01:21:46.570Z,17.43
2022-12-04T01:24:16.044Z,17.53
2022-12-04T01:26:44.465Z,15.40
2022-12-04T01:29:12.694Z,17.40
2022-12-04T01:31:41.024Z,15.00
2022-12-04T01:34:11.448Z,17.40
2022-12-04T01:36:40.116Z,18.00
2022-12-04T01:39:11.133Z,17.50
2022-12-04T01:41:41.388Z,18.10
2022-12-04T01:44:11.946Z,16.00
2022-12-04T01:46:42.359Z,16.73
2022-12-04T01:49:15.168Z,17.17
2022-12-04T01:51:54.513Z,17.37
2022-12-04T01:54:28.380Z,16.80
2022-12-04T01:57:08.005Z,16.83
2022-12-04T01:59:41.488Z,16.53
2022-12-04T02:02:12.271Z,15.30
2022-12-04T02:04:42.213Z,16.53
2022-12-04T02:07:10.355Z,16.03
2022-12-04T02:09:40.289Z,15.27
2022-12-04T02:12:29.020Z,17.10
2022-12-04T02:15:06.408Z,15.90
2022-12-04T02:17:40.959Z,16.43
2022-12-04T02:20:28.308Z,16.20
2022-12-04T02:23:33.264Z,13.97
2022-12-04T02:26:14.376Z,14.77
2022-12-04T02:28:57.171Z,13.53
2022-12-04T02:31:34.807Z,16.67
2022-12-04T02:34:08.242Z,15.70
2022-12-04T02:36:43.982Z,14.10
2022-12-04T02:39:23.491Z,14.40
2022-12-04T02:41:59.178Z,16.00
2022-12-04T02:44:31.901Z,15.60
2022-12-04T02:47:03.667Z,11.53
2022-12-04T02:49:45.928Z,13.30
2022-12-04T02:52:19.460Z,14.63
2022-12-04T02:54:54.749Z,14.27
2022-12-04T02:57:26.942Z,13.80
2022-12-04T02:59:58.620Z,13.87
2022-12-04T03:02:34.905Z,14.93
2022-12-04T03:05:10.197Z,16.07
2022-12-04T03:07:47.845Z,13.83
2022-12-04T03:10:20.082Z,12.27
2022-12-04T03:12:54.701Z,14.47
2022-12-04T03:15:28.365Z,12.63
2022-12-04T03:18:03.335Z,13.50
2022-12-04T03:20:36.553Z,12.43
2022-12-04T03:23:10.770Z,13.57
2022-12-04T03:25:47.105Z,14.00
2022-12-04T03:28:23.306Z,12.13
2022-12-04T03:30:59.653Z,11.80
2022-12-04T03:33:35.342Z,12.20
2022-12-04T03:36:13.559Z,12.73
2022-12-04T03:38:49.012Z,13.10
2022-12-04T03:41:27.265Z,12.30
2022-12-04T03:44:00.552Z,12.90
2022-12-04T03:46:35.030Z,12.03
2022-12-04T03:49:14.413Z,12.67
2022-12-04T03:51:46.954Z,13.00
2022-12-04T03:54:19.710Z,13.20
2022-12-04T03:56:52.614Z,13.17
2022-12-04T03:59:25.375Z,12.93
2022-12-04T04:01:57.281Z,12.87
2022-12-04T04:04:31.966Z,13.43
2022-12-04T04:07:05.880Z,12.53
2022-12-04T04:09:40.159Z,11.70
2022-12-04T04:12:11.494Z,13.93
2022-12-04T04:15:03.584Z,12.80
2022-12-04T04:17:58.669Z,14.03
2022-12-04T04:20:53.200Z,13.77
2022-12-04T04:23:41.615Z,12.20
2022-12-04T04:26:12.244Z,14.10
2022-12-04T04:28:43.974Z,14.80
2022-12-04T04:31:21.042Z,14.50
2022-12-04T04:34:00.600Z,13.87
2022-12-04T04:36:37.567Z,13.40
2022-12-04T04:39:12.867Z,15.07
2022-12-04T04:41:49.030Z,13.17
2022-12-04T04:44:24.372Z,14.00
2022-12-04T04:46:57.362Z,12.80
2022-12-04T04:49:32.131Z,13.30
2022-12-04T04:52:01.456Z,13.27
2022-12-04T04:54:30.701Z,13.80
2022-12-04T04:56:58.905Z,12.10
2022-12-04T04:59:27.625Z,11.97
2022-12-04T05:01:55.756Z,14.00
2022-12-04T05:04:23.789Z,13.63
2022-12-04T05:06:53.634Z,12.87
2022-12-04T05:09:22.516Z,13.00
2022-12-04T05:11:51.454Z,13.57
2022-12-04T05:14:23.815Z,12.97
2022-12-04T05:16:52.505Z,13.10
2022-12-04T05:19:38.289Z,12.30
2022-12-04T05:22:10.506Z,12.53
2022-12-04T05:24:38.589Z,12.67
2022-12-04T05:27:06.566Z,13.23
2022-12-04T05:29:36.087Z,11.70
2022-12-04T05:32:04.610Z,12.20
2022-12-04T05:34:35.522Z,11.33
2022-12-04T05:37:05.880Z,12.50
2022-12-04T05:39:37.124Z,10.57
2022-12-04T05:42:07.657Z,12.20
2022-12-04T05:44:36.175Z,12.00
2022-12-04T05:47:04.231Z,9.60
2022-12-04T05:49:33.791Z,10.90
2022-12-04T05:52:02.332Z,10.10
2022-12-04T05:54:30.830Z,8.40
2022-12-04T05:57:00.211Z,8.30
2022-12-04T05:59:31.130Z,8.40
2022-12-04T06:01:59.203Z,8.40
2022-12-04T06:04:29.799Z,9.37
2022-12-04T06:06:58.809Z,9.40
2022-12-04T06:09:29.692Z,10.10
2022-12-04T06:12:00.228Z,9.93
2022-12-04T06:14:28.464Z,11.67
2022-12-04T06:16:56.620Z,10.20
2022-12-04T06:19:27.613Z,10.37
2022-12-04T06:21:55.669Z,9.53
2022-12-04T06:24:25.783Z,11.87
2022-12-04T06:27:26.235Z,10.70
2022-12-04T06:29:49.553Z,10.33
2022-12-04T06:32:21.455Z,9.23
2022-12-04T06:34:59.557Z,9.10
2022-12-04T06:37:28.041Z,7.97
2022-12-04T06:39:58.421Z,8.30
2022-12-04T06:42:29.467Z,9.00
2022-12-04T06:45:05.288Z,8.10
2022-12-04T06:47:37.443Z,9.47
2022-12-04T06:50:06.394Z,8.80
2022-12-04T06:52:37.654Z,8.63
2022-12-04T06:55:06.503Z,8.70
2022-12-04T06:57:38.058Z,9.87
2022-12-04T07:00:08.990Z,8.77
2022-12-04T07:02:37.655Z,8.60
2022-12-04T07:05:07.139Z,9.30
2022-12-04T07:07:35.803Z,8.53
2022-12-04T07:10:04.638Z,9.60
2022-12-04T07:12:33.594Z,9.07
2022-12-04T07:15:02.586Z,9.83
2022-12-04T07:17:32.535Z,8.97
2022-12-04T07:20:02.833Z,9.17
2022-12-04T07:22:32.037Z,9.87
2022-12-04T07:25:00.480Z,10.00
2022-12-04T07:27:30.975Z,9.97
2022-12-04T07:29:59.505Z,9.83
2022-12-04T07:32:29.858Z,9.30
2022-12-04T07:35:10.896Z,10.37
2022-12-04T07:37:38.929Z,9.60
2022-12-04T07:40:08.253Z,10.03
2022-12-04T07:42:36.286Z,8.63
2022-12-04T07:45:06.827Z,9.33
2022-12-04T07:47:36.559Z,10.73
2022-12-04T07:50:08.680Z,10.20
2022-12-04T07:52:40.354Z,9.47
2022-12-04T07:55:09.718Z,10.07
2022-12-04T08:00:23.182Z,10.67
2022-12-04T08:02:51.506Z,10.37
2022-12-04T08:05:21.285Z,10.10
2022-12-04T08:07:49.859Z,10.40
2022-12-04T08:10:18.222Z,10.10
2022-12-04T08:12:46.657Z,9.53
2022-12-04T08:15:14.618Z,9.60
2022-12-04T08:17:45.112Z,10.00
2022-12-04T08:20:14.024Z,9.27
2022-12-04T08:22:43.727Z,10.90
2022-12-04T08:25:11.964Z,9.50
2022-12-04T08:27:45.972Z,11.40
2022-12-04T08:30:16.079Z,9.80
2022-12-04T08:32:44.469Z,11.20
2022-12-04T08:35:12.679Z,11.10
2022-12-04T08:37:44.804Z,11.50
2022-12-04T08:40:17.363Z,10.50
2022-12-04T08:42:45.562Z,10.57
2022-12-04T08:45:13.604Z,12.20
2022-12-04T08:47:52.583Z,10.70
2022-12-04T08:50:21.353Z,11.20
2022-12-04T08:52:51.035Z,10.63
2022-12-04T08:55:21.315Z,10.07
2022-12-04T08:57:52.733Z,11.50
2022-12-04T09:00:22.121Z,10.20
2022-12-04T09:02:50.660Z,11.10
2022-12-04T09:05:18.796Z,11.20
2022-12-04T09:07:47.689Z,10.57
2022-12-04T09:10:17.237Z,11.07
2022-12-04T09:12:45.294Z,12.13
2022-12-04T09:15:13.645Z,11.03
2022-12-04T09:17:43.819Z,10.67
2022-12-04T09:20:14.935Z,10.97
2022-12-04T09:23:02.967Z,10.37
2022-12-04T09:25:36.002Z,9.80
2022-12-04T09:28:04.930Z,11.13
2022-12-04T09:30:33.244Z,10.60
2022-12-04T09:33:01.971Z,10.37
2022-12-04T09:35:30.723Z,12.40
2022-12-04T09:37:59.404Z,10.33
2022-12-04T09:40:37.895Z,11.63
2022-12-04T09:43:21.622Z,12.87
2022-12-04T09:45:57.054Z,11.50
2022-12-04T09:48:33.158Z,11.87
2022-12-04T09:51:03.302Z,12.27
2022-12-04T09:53:44.765Z,12.90
2022-12-04T09:56:16.511Z,11.97
2022-12-04T09:58:53.845Z,11.30
2022-12-04T10:01:29.922Z,11.50
2022-12-04T10:04:04.280Z,11.10
2022-12-04T10:06:41.058Z,11.80
2022-12-04T10:09:13.328Z,11.27
2022-12-04T10:11:55.156Z,11.23
2022-12-04T10:14:50.137Z,11.23
2022-12-04T10:17:32.940Z,12.20
2022-12-04T10:20:16.003Z,10.37
2022-12-04T10:22:53.432Z,13.07
2022-12-04T10:25:24.042Z,12.60
2022-12-04T10:27:58.585Z,11.10
2022-12-04T10:30:35.272Z,11.80
2022-12-04T10:33:15.955Z,11.33
2022-12-04T10:35:50.813Z,12.13
2022-12-04T10:38:29.746Z,12.63
2022-12-04T10:41:04.072Z,12.13
2022-12-04T10:43:39.946Z,11.47
2022-12-04T10:46:16.105Z,11.23
2022-12-04T10:48:50.251Z,12.57
2022-12-04T10:51:28.758Z,11.50
2022-12-04T10:53:58.950Z,11.90
2022-12-04T10:56:30.449Z,12.73
2022-12-04T10:59:03.718Z,12.73
2022-12-04T11:01:35.605Z,11.30
2022-12-04T11:04:09.784Z,12.00
2022-12-04T11:06:40.164Z,11.97
2022-12-04T11:09:15.701Z,12.43
2022-12-04T11:11:44.236Z,18.77
2022-12-04T11:14:16.564Z,17.70
2022-12-04T11:16:49.739Z,16.53
2022-12-04T11:19:24.335Z,11.83
2022-12-04T11:21:54.324Z,10.60
2022-12-04T11:24:26.245Z,11.03
2022-12-04T11:26:55.362Z,12.30
2022-12-04T11:29:33.035Z,10.70
2022-12-04T11:32:07.725Z,15.93
2022-12-04T11:34:39.952Z,17.20
2022-12-04T11:37:20.845Z,16.40
2022-12-04T11:39:49.339Z,20.47
2022-12-04T11:42:19.979Z,16.07
2022-12-04T11:44:54.404Z,12.43
2022-12-04T11:47:29.928Z,11.50
2022-12-04T11:50:05.849Z,12.10
2022-12-04T11:52:54.189Z,13.30
2022-12-04T11:55:29.383Z,11.83
2022-12-04T11:58:25.542Z,11.37
2022-12-04T12:01:04.866Z,10.90
2022-12-04T12:03:43.854Z,10.77
2022-12-04T12:06:32.979Z,11.93
2022-12-04T12:09:22.764Z,11.60
2022-12-04T12:11:56.756Z,11.20
2022-12-04T12:14:36.065Z,10.87
2022-12-04T12:17:16.149Z,10.10
2022-12-04T12:20:17.928Z,11.03
2022-12-04T12:23:20.450Z,10.30
2022-12-04T12:25:56.488Z,10.57
2022-12-04T12:28:40.179Z,10.43
2022-12-04T12:31:30.503Z,9.53
2022-12-04T12:34:05.142Z,10.20
2022-12-04T12:36:56.423Z,10.67
2022-12-04T12:39:35.306Z,11.53
2022-12-04T12:42:03.527Z,9.63
2022-12-04T12:44:43.308Z,10.17
2022-12-04T12:47:16.658Z,9.63
2022-12-04T12:49:53.705Z,10.17
2022-12-04T12:52:31.861Z,10.47
2022-12-04T12:55:04.053Z,10.37
2022-12-04T12:57:37.898Z,9.27
2022-12-04T13:00:14.121Z,12.07
2022-12-04T13:02:48.110Z,10.23
2022-12-04T13:05:23.213Z,11.00
2022-12-04T13:08:02.254Z,10.67
2022-12-04T13:10:36.618Z,10.23
2022-12-04T13:13:09.084Z,9.73
2022-12-04T13:15:43.614Z,9.73
2022-12-04T13:18:15.729Z,10.20
2022-12-04T13:20:53.326Z,10.10
2022-12-04T13:23:47.021Z,9.33
2022-12-04T13:26:25.801Z,10.57
2022-12-04T13:29:03.464Z,10.00
2022-12-04T13:31:38.966Z,10.20
2022-12-04T13:34:40.363Z,10.43
2022-12-04T13:37:23.255Z,10.23
2022-12-04T13:40:27.915Z,9.67
2022-12-04T13:43:21.735Z,9.37
2022-12-04T13:45:52.043Z,10.17
2022-12-04T13:48:37.681Z,8.70
2022-12-04T13:51:10.764Z,10.03
2022-12-04T13:53:40.305Z,9.30
2022-12-04T13:56:26.693Z,10.03
2022-12-04T13:59:02.272Z,10.07
2022-12-04T14:01:36.789Z,9.90
2022-12-04T14:04:08.326Z,10.30
2022-12-04T14:06:39.719Z,10.53
2022-12-04T14:09:19.646Z,9.37
2022-12-04T14:11:53.380Z,10.07
2022-12-04T14:14:29.541Z,11.30
2022-12-04T14:17:01.364Z,10.60
2022-12-04T14:19:32.997Z,9.93
2022-12-04T14:22:04.447Z,8.27
2022-12-04T14:24:36.070Z,9.93
2022-12-04T14:27:39.081Z,9.77
2022-12-04T14:30:18.815Z,9.43
2022-12-04T14:32:48.955Z,9.07
2022-12-04T14:35:20.226Z,9.87
2022-12-04T14:37:56.371Z,9.73
2022-12-04T14:40:30.045Z,10.27
2022-12-04T14:43:03.074Z,8.97
2022-12-04T14:45:39.862Z,11.30
2022-12-04T14:48:27.530Z,9.47
2022-12-04T14:51:03.836Z,9.97
2022-12-04T14:53:39.717Z,10.30
2022-12-04T14:56:21.723Z,11.70
2022-12-04T14:58:52.553Z,10.30
2022-12-04T15:01:29.158Z,10.83
2022-12-04T15:04:14.712Z,11.80
2022-12-04T15:06:47.634Z,9.70
2022-12-04T15:09:36.387Z,11.30
2022-12-04T15:12:38.498Z,12.23
2022-12-04T15:15:25.885Z,12.20
2022-12-04T15:17:58.478Z,11.20
2022-12-04T15:20:29.916Z,11.70
2022-12-04T15:23:02.738Z,12.00
2022-12-04T15:25:38.338Z,12.80
2022-12-04T15:28:14.955Z,11.80
2022-12-04T15:30:48.923Z,12.40
2022-12-04T15:33:21.849Z,12.93
2022-12-04T15:35:57.755Z,11.63
2022-12-04T15:38:28.432Z,11.57
2022-12-04T15:41:01.354Z,12.07
2022-12-04T15:43:32.276Z,12.20
2022-12-04T15:46:02.514Z,11.70
2022-12-04T15:48:32.372Z,12.23
2022-12-04T15:51:03.682Z,11.10
2022-12-04T15:53:34.111Z,11.40
2022-12-04T15:56:05.421Z,12.10
2022-12-04T15:58:35.344Z,11.23
2022-12-04T16:01:06.775Z,11.77
2022-12-04T16:03:42.864Z,10.90
2022-12-04T16:06:21.046Z,11.47
2022-12-04T16:08:51.546Z,13.07
2022-12-04T16:11:30.834Z,11.70
2022-12-04T16:14:18.918Z,11.70
2022-12-04T16:16:52.169Z,13.70
2022-12-04T16:19:36.852Z,12.20
2022-12-04T16:22:31.577Z,13.60
2022-12-04T16:24:59.999Z,14.60
2022-12-04T16:27:28.394Z,12.80
2022-12-04T16:29:57.848Z,13.10
2022-12-04T16:32:31.221Z,13.30
2022-12-04T16:35:01.138Z,12.20
2022-12-04T16:37:29.878Z,14.70
2022-12-04T16:39:58.090Z,14.60
2022-12-04T16:42:30.470Z,15.00
2022-12-04T16:44:59.788Z,14.90
2022-12-04T16:47:30.351Z,14.07
2022-12-04T16:49:58.861Z,14.20
2022-12-04T16:52:26.847Z,14.30
2022-12-04T16:55:04.259Z,13.00
2022-12-04T16:57:33.799Z,14.60
2022-12-04T17:00:02.245Z,15.53
2022-12-04T17:02:31.677Z,13.63
2022-12-04T17:05:00.463Z,13.77
2022-12-04T17:07:31.471Z,13.93
2022-12-04T17:09:59.863Z,15.30
2022-12-04T17:12:29.918Z,15.10
2022-12-04T17:14:59.048Z,15.00
2022-12-04T17:17:27.210Z,17.30
2022-12-04T17:19:56.617Z,16.03
2022-12-04T17:22:28.522Z,15.70
2022-12-04T17:24:57.323Z,16.73
2022-12-04T17:27:26.011Z,15.57
2022-12-04T17:29:54.880Z,18.10
2022-12-04T17:32:25.808Z,16.90
2022-12-04T17:34:56.727Z,16.03
2022-12-04T17:37:25.202Z,17.83
2022-12-04T17:39:53.215Z,16.00
2022-12-04T17:42:21.846Z,15.40
2022-12-04T17:44:52.153Z,17.40
2022-12-04T17:47:20.576Z,17.43
2022-12-04T17:49:49.253Z,16.57
2022-12-04T17:52:22.217Z,15.80
2022-12-04T17:54:51.773Z,17.10
2022-12-04T17:57:21.004Z,14.50
2022-12-04T17:59:50.269Z,18.60
2022-12-04T18:02:19.059Z,16.77
2022-12-04T18:04:47.064Z,18.30
2022-12-04T18:07:15.020Z,18.00
2022-12-04T18:09:45.202Z,16.47
2022-12-04T18:12:14.299Z,25.93
2022-12-04T18:14:44.830Z,20.97
2022-12-04T18:17:13.658Z,20.70
2022-12-04T18:19:41.673Z,17.30
2022-12-04T18:22:13.156Z,18.37
2022-12-04T18:24:42.385Z,18.23
2022-12-04T18:27:11.741Z,18.10
2022-12-04T18:29:40.213Z,20.90
2022-12-04T18:32:11.290Z,17.87
2022-12-04T18:34:39.939Z,17.43
2022-12-04T18:37:07.907Z,16.57
2022-12-04T18:39:36.375Z,17.30
2022-12-04T18:42:04.593Z,15.90
2022-12-04T18:44:41.445Z,17.10
2022-12-04T18:47:12.793Z,16.50
2022-12-04T18:49:40.969Z,19.00
2022-12-04T18:52:08.957Z,18.63
2022-12-04T18:54:37.414Z,19.00
2022-12-04T18:57:05.409Z,18.60
2022-12-04T18:59:40.827Z,16.67
2022-12-04T19:02:11.239Z,17.57
2022-12-04T19:04:39.275Z,16.20
2022-12-04T19:07:07.701Z,17.90
2022-12-04T19:10:09.461Z,16.93
2022-12-04T19:12:23.878Z,18.47
2022-12-04T19:14:53.212Z,16.77
2022-12-04T19:17:22.410Z,17.10
2022-12-04T19:19:52.691Z,17.23
2022-12-04T19:22:20.898Z,17.07
2022-12-04T19:24:48.894Z,18.60
2022-12-04T19:27:17.882Z,16.50
2022-12-04T19:29:45.850Z,17.73
2022-12-04T19:32:18.577Z,16.97
2022-12-04T19:34:51.210Z,16.27
2022-12-04T19:37:23.013Z,18.33
2022-12-04T19:39:51.260Z,16.83
2022-12-04T19:42:19.210Z,16.80
2022-12-04T19:44:49.412Z,16.30
2022-12-04T19:47:19.996Z,16.80
2022-12-04T19:49:48.948Z,16.17
2022-12-04T19:52:17.224Z,16.50
2022-12-04T19:54:45.605Z,17.13
2022-12-04T19:57:17.284Z,16.73
2022-12-04T19:59:46.825Z,15.87
2022-12-04T20:02:16.169Z,16.63
2022-12-04T20:04:46.272Z,17.00
2022-12-04T20:07:16.720Z,15.77
2022-12-04T20:09:51.976Z,16.07
2022-12-04T20:12:20.968Z,16.30
2022-12-04T20:14:48.975Z,16.50
2022-12-04T20:17:18.902Z,15.43
2022-12-04T20:19:48.981Z,16.10
2022-12-04T20:22:17.016Z,17.47
2022-12-04T20:24:44.999Z,17.47
2022-12-04T20:27:14.362Z,16.93
2022-12-04T20:29:42.977Z,15.20
2022-12-04T20:32:11.907Z,15.30
2022-12-04T20:34:43.706Z,16.40
2022-12-04T20:37:13.866Z,15.10
2022-12-04T20:39:42.942Z,18.07
2022-12-04T20:42:10.970Z,16.20
2022-12-04T20:44:39.454Z,14.53
2022-12-04T20:47:07.577Z,16.10
2022-12-04T20:49:35.609Z,15.60
2022-12-04T20:52:04.319Z,18.10
2022-12-04T20:54:40.858Z,15.47
2022-12-04T20:57:10.339Z,16.47
2022-12-04T20:59:39.452Z,15.97
2022-12-04T21:02:07.594Z,14.90
2022-12-04T21:04:37.966Z,16.40
2022-12-04T21:07:13.688Z,15.80
2022-12-04T21:09:44.078Z,16.67
2022-12-04T21:12:27.451Z,13.93
2022-12-04T21:15:13.010Z,16.20
2022-12-04T21:17:41.806Z,15.37
2022-12-04T21:20:11.127Z,15.57
2022-12-04T21:22:39.453Z,16.70
2022-12-04T21:25:10.164Z,14.27
2022-12-04T21:27:38.392Z,15.10
2022-12-04T21:30:07.858Z,14.33
2022-12-04T21:32:36.858Z,16.57
2022-12-04T21:35:05.204Z,15.13
2022-12-04T21:37:34.353Z,14.03
2022-12-04T21:40:06.061Z,14.90
2022-12-04T21:42:37.870Z,15.67
2022-12-04T21:45:09.256Z,16.30
2022-12-04T21:47:38.554Z,15.50
2022-12-04T21:50:07.960Z,13.30
2022-12-04T21:52:36.550Z,14.17
2022-12-04T21:55:07.284Z,13.87
2022-12-04T21:57:37.512Z,13.73
2022-12-04T22:00:07.208Z,14.47
2022-12-04T22:02:36.303Z,15.20
2022-12-04T22:05:04.691Z,14.70
2022-12-04T22:07:32.764Z,13.53
2022-12-04T22:10:10.279Z,14.07
2022-12-04T22:12:49.512Z,15.10
2022-12-04T22:15:18.685Z,14.70
2022-12-04T22:17:47.232Z,15.70
2022-12-04T22:20:17.632Z,15.80
2022-12-04T22:22:46.217Z,13.13
2022-12-04T22:25:17.537Z,14.03
2022-12-04T22:27:49.624Z,14.37
2022-12-04T22:30:18.546Z,14.53
2022-12-04T22:32:46.548Z,14.63
2022-12-04T22:35:15.001Z,15.23
2022-12-04T22:37:44.704Z,15.00
2022-12-04T22:40:13.910Z,14.37
2022-12-04T22:42:42.066Z,13.47
2022-12-04T22:45:12.920Z,14.27
2022-12-04T22:47:41.323Z,12.87
2022-12-04T22:50:10.303Z,16.40
2022-12-04T22:52:39.705Z,15.50
2022-12-04T22:55:10.717Z,13.87
2022-12-04T22:57:39.594Z,14.27
2022-12-04T23:00:09.273Z,14.40
2022-12-04T23:02:38.714Z,15.40
2022-12-04T23:05:08.071Z,14.30
2022-12-04T23:07:37.496Z,15.13
2022-12-04T23:10:07.552Z,14.27
2022-12-04T23:12:36.009Z,15.50
2022-12-04T23:15:04.102Z,15.47
2022-12-04T23:17:33.244Z,14.57
2022-12-04T23:20:03.392Z,12.67
2022-12-04T23:22:31.669Z,14.07
2022-12-04T23:24:59.726Z,13.50
2022-12-04T23:27:31.767Z,13.80
2022-12-04T23:29:59.814Z,13.50
2022-12-04T23:32:30.544Z,13.40
2022-12-04T23:34:58.576Z,15.40
2022-12-04T23:37:27.905Z,14.87
2022-12-04T23:39:57.524Z,14.77
2022-12-04T23:42:40.936Z,12.97
2022-12-04T23:45:10.253Z,15.53
2022-12-04T23:47:38.378Z,13.93
2022-12-04T23:50:07.636Z,14.43
2022-12-04T23:52:37.388Z,14.93
2022-12-04T23:55:06.062Z,14.50
2022-12-04T23:57:34.097Z,14.53
